createdAt,value
2023-02-11T00:00:33.972Z,81.85
2023-02-11T00:01:36.749Z,81.82
2023-02-11T00:02:39.102Z,84.07
2023-02-11T00:03:41.490Z,84.67
2023-02-11T00:04:43.863Z,84.03
2023-02-11T00:05:46.194Z,81.65
2023-02-11T00:06:48.574Z,83.67
2023-02-11T00:07:50.957Z,83.02
2023-02-11T00:08:53.521Z,84.90
2023-02-11T00:09:56.102Z,82.53
2023-02-11T00:10:58.597Z,81.88
2023-02-11T00:12:00.976Z,81.70
2023-02-11T00:13:03.366Z,80.35
2023-02-11T00:14:08.070Z,80.77
2023-02-11T00:15:10.741Z,80.08
2023-02-11T00:16:18.843Z,80.18
2023-02-11T00:17:21.394Z,79.27
2023-02-11T00:18:23.735Z,78.15
2023-02-11T00:19:26.082Z,80.48
2023-02-11T00:20:28.432Z,82.50
2023-02-11T00:21:30.851Z,87.77
2023-02-11T00:22:33.196Z,90.65
2023-02-11T00:23:36.394Z,96.05
2023-02-11T00:24:38.778Z,102.62
2023-02-11T00:25:42.615Z,111.42
2023-02-11T00:26:45.015Z,108.97
2023-02-11T00:27:47.404Z,106.87
2023-02-11T00:28:51.735Z,107.85
2023-02-11T00:29:54.128Z,106.55
2023-02-11T00:30:57.683Z,107.60
2023-02-11T00:32:05.260Z,105.98
2023-02-11T00:33:07.712Z,101.45
2023-02-11T00:34:10.099Z,98.20
2023-02-11T00:35:12.615Z,96.60
2023-02-11T00:36:17.605Z,96.10
2023-02-11T00:37:19.950Z,93.82
2023-02-11T00:38:22.314Z,94.73
2023-02-11T00:39:25.183Z,92.42
2023-02-11T00:40:27.812Z,85.60
2023-02-11T00:41:30.654Z,85.42
2023-02-11T00:42:33.139Z,86.13
2023-02-11T00:43:35.896Z,86.45
2023-02-11T00:44:40.574Z,84.62
2023-02-11T00:45:42.964Z,85.07
2023-02-11T00:46:45.444Z,84.32
2023-02-11T00:47:48.039Z,84.35
2023-02-11T00:48:51.985Z,83.67
2023-02-11T00:49:54.366Z,86.97
2023-02-11T00:50:56.849Z,84.48
2023-02-11T00:51:59.260Z,83.75
2023-02-11T00:53:01.633Z,82.97
2023-02-11T00:54:04.609Z,85.57
2023-02-11T00:55:07.772Z,85.40
2023-02-11T00:56:10.241Z,85.62
2023-02-11T00:57:12.677Z,85.70
2023-02-11T00:58:15.045Z,84.87
2023-02-11T00:59:58.348Z,82.92
2023-02-11T01:01:00.827Z,85.38
2023-02-11T01:02:03.448Z,84.53
2023-02-11T01:03:06.344Z,82.98
2023-02-11T01:04:08.701Z,79.52
2023-02-11T01:05:11.110Z,77.30
2023-02-11T01:06:14.010Z,76.67
2023-02-11T01:07:16.390Z,76.78
2023-02-11T01:08:18.896Z,77.10
2023-02-11T01:09:21.285Z,75.30
2023-02-11T01:10:23.632Z,76.07
2023-02-11T01:11:26.276Z,73.43
2023-02-11T01:12:28.613Z,75.53
2023-02-11T01:13:33.290Z,74.58
2023-02-11T01:14:35.661Z,73.83
2023-02-11T01:15:38.141Z,75.38
2023-02-11T01:16:40.492Z,74.65
2023-02-11T01:17:42.992Z,74.13
2023-02-11T01:18:46.082Z,72.38
2023-02-11T01:19:48.694Z,72.53
2023-02-11T01:20:52.332Z,72.13
2023-02-11T01:21:54.652Z,72.40
2023-02-11T01:22:59.355Z,71.20
2023-02-11T01:24:01.753Z,71.72
2023-02-11T01:25:04.340Z,70.28
2023-02-11T01:26:06.802Z,71.78
2023-02-11T01:27:09.117Z,72.02
2023-02-11T01:28:18.982Z,72.45
2023-02-11T01:29:21.563Z,71.60
2023-02-11T01:30:23.942Z,69.95
2023-02-11T01:31:26.377Z,74.70
2023-02-11T01:32:28.740Z,76.65
2023-02-11T01:33:33.407Z,84.13
2023-02-11T01:34:35.814Z,91.82
2023-02-11T01:35:39.595Z,95.82
2023-02-11T01:36:42.120Z,98.37
2023-02-11T01:37:44.641Z,96.60
2023-02-11T01:38:46.976Z,95.95
2023-02-11T01:39:49.325Z,93.58
2023-02-11T01:40:57.483Z,92.15
2023-02-11T01:42:00.126Z,89.50
2023-02-11T01:43:02.456Z,89.50
2023-02-11T01:44:27.805Z,91.90
2023-02-11T01:46:05.511Z,92.05
2023-02-11T01:47:08.112Z,89.15
2023-02-11T01:48:14.489Z,86.12
2023-02-11T01:49:27.975Z,82.07
2023-02-11T01:50:31.266Z,82.23
2023-02-11T01:51:42.130Z,77.05
2023-02-11T01:52:47.245Z,77.53
2023-02-11T01:54:09.263Z,73.68
2023-02-11T01:55:32.233Z,74.27
2023-02-11T01:56:56.832Z,73.53
2023-02-11T01:58:04.827Z,73.53
2023-02-11T01:59:15.769Z,75.30
2023-02-11T02:01:32.065Z,75.63
2023-02-11T02:02:55.797Z,76.90
2023-02-11T02:04:01.888Z,74.60
2023-02-11T02:05:30.841Z,74.35
2023-02-11T02:06:38.282Z,74.18
2023-02-11T02:07:52.906Z,74.60
2023-02-11T02:09:20.549Z,75.08
2023-02-11T02:10:26.279Z,76.48
2023-02-11T02:11:28.643Z,76.50
2023-02-11T02:12:31.041Z,75.85
2023-02-11T02:13:34.973Z,75.73
2023-02-11T02:14:40.936Z,73.78
2023-02-11T02:15:54.631Z,73.88
2023-02-11T02:16:56.979Z,68.67
2023-02-11T02:18:09.279Z,69.12
2023-02-11T02:19:39.265Z,68.23
2023-02-11T02:21:05.593Z,69.62
2023-02-11T02:22:38.569Z,69.78
2023-02-11T02:23:44.113Z,67.92
2023-02-11T02:25:04.616Z,69.45
2023-02-11T02:26:29.968Z,69.72
2023-02-11T02:27:38.374Z,70.58
2023-02-11T02:28:43.435Z,69.65
2023-02-11T02:30:07.325Z,70.08
2023-02-11T02:31:21.148Z,71.72
2023-02-11T02:32:48.302Z,70.63
2023-02-11T02:33:54.484Z,71.67
2023-02-11T02:35:34.125Z,70.98
2023-02-11T02:36:49.797Z,70.22
2023-02-11T02:38:00.281Z,68.82
2023-02-11T02:39:26.824Z,70.70
2023-02-11T02:40:37.200Z,72.53
2023-02-11T02:41:40.277Z,71.40
2023-02-11T02:42:44.157Z,70.73
2023-02-11T02:43:49.961Z,70.70
2023-02-11T02:44:53.526Z,71.37
2023-02-11T02:45:56.066Z,68.53
2023-02-11T02:46:58.504Z,68.52
2023-02-11T02:48:00.900Z,69.98
2023-02-11T02:49:04.170Z,68.25
2023-02-11T02:50:09.255Z,68.05
2023-02-11T02:51:42.873Z,68.47
2023-02-11T02:52:50.673Z,69.02
2023-02-11T02:54:21.102Z,68.58
2023-02-11T02:55:41.274Z,70.10
2023-02-11T02:57:20.259Z,68.45
2023-02-11T02:58:22.534Z,68.95
2023-02-11T02:59:36.682Z,67.67
2023-02-11T03:00:51.306Z,66.48
2023-02-11T03:02:17.516Z,67.57
2023-02-11T03:03:31.797Z,66.65
2023-02-11T03:04:54.952Z,68.00
2023-02-11T03:05:59.933Z,67.50
2023-02-11T03:07:19.937Z,67.95
2023-02-11T03:08:35.626Z,68.48
2023-02-11T03:09:49.767Z,68.18
2023-02-11T03:10:54.762Z,68.63
2023-02-11T03:11:57.341Z,67.95
2023-02-11T03:13:01.368Z,69.32
2023-02-11T03:14:06.374Z,68.25
2023-02-11T03:15:09.349Z,67.55
2023-02-11T03:16:15.796Z,68.13
2023-02-11T03:17:19.166Z,67.47
2023-02-11T03:18:25.744Z,69.57
2023-02-11T03:19:37.649Z,70.33
2023-02-11T03:20:42.581Z,70.10
2023-02-11T03:21:47.869Z,70.70
2023-02-11T03:23:15.320Z,71.32
2023-02-11T03:24:40.216Z,71.33
2023-02-11T03:25:47.239Z,71.30
2023-02-11T03:26:55.404Z,71.88
2023-02-11T03:28:10.329Z,73.00
2023-02-11T03:29:40.465Z,72.70
2023-02-11T03:31:07.603Z,70.88
2023-02-11T03:32:16.401Z,71.68
2023-02-11T03:33:29.675Z,71.10
2023-02-11T03:34:54.843Z,71.07
2023-02-11T03:36:02.315Z,70.08
2023-02-11T03:37:16.833Z,69.03
2023-02-11T03:38:28.236Z,70.12
2023-02-11T03:39:40.678Z,71.52
2023-02-11T03:40:45.767Z,69.67
2023-02-11T03:41:50.234Z,69.68
2023-02-11T03:43:03.340Z,70.48
2023-02-11T03:44:07.270Z,70.00
2023-02-11T03:45:12.621Z,68.58
2023-02-11T03:46:18.644Z,70.33
2023-02-11T03:47:26.718Z,67.95
2023-02-11T03:48:35.555Z,69.08
2023-02-11T03:49:40.078Z,71.33
2023-02-11T03:50:44.912Z,69.80
2023-02-11T03:51:51.110Z,69.32
2023-02-11T03:52:55.226Z,68.67
2023-02-11T03:54:00.615Z,70.67
2023-02-11T03:55:09.307Z,69.18
2023-02-11T03:56:17.399Z,68.60
2023-02-11T03:57:19.794Z,70.42
2023-02-11T03:58:22.394Z,68.68
2023-02-11T03:59:25.707Z,68.63
2023-02-11T04:00:36.741Z,70.40
2023-02-11T04:01:39.082Z,68.90
2023-02-11T04:02:42.116Z,68.97
2023-02-11T04:03:44.510Z,70.12
2023-02-11T04:04:47.382Z,69.48
2023-02-11T04:05:50.119Z,70.73
2023-02-11T04:06:52.763Z,70.55
2023-02-11T04:07:55.140Z,68.70
2023-02-11T04:08:57.633Z,70.53
2023-02-11T04:10:00.024Z,70.22
2023-02-11T04:11:02.364Z,69.35
2023-02-11T04:12:04.917Z,68.72
2023-02-11T04:13:07.262Z,68.72
2023-02-11T04:14:09.641Z,68.57
2023-02-11T04:15:12.080Z,70.32
2023-02-11T04:16:14.533Z,70.53
2023-02-11T04:17:16.999Z,72.32
2023-02-11T04:18:19.394Z,71.03
2023-02-11T04:19:21.765Z,72.38
2023-02-11T04:20:24.127Z,72.02
2023-02-11T04:21:26.542Z,72.48
2023-02-11T04:22:28.891Z,72.30
2023-02-11T04:23:31.223Z,73.83
2023-02-11T04:24:34.066Z,73.23
2023-02-11T04:25:36.711Z,74.12
2023-02-11T04:26:39.177Z,73.35
2023-02-11T04:27:41.524Z,74.78
2023-02-11T04:28:43.841Z,72.60
2023-02-11T04:29:46.176Z,73.40
2023-02-11T04:30:50.689Z,72.45
2023-02-11T04:31:53.168Z,71.63
2023-02-11T04:32:55.545Z,72.75
2023-02-11T04:33:57.888Z,71.70
2023-02-11T04:35:00.231Z,69.23
2023-02-11T04:36:02.673Z,70.88
2023-02-11T04:37:05.489Z,69.78
2023-02-11T04:38:07.909Z,70.03
2023-02-11T04:39:10.313Z,68.65
2023-02-11T04:40:13.206Z,69.07
2023-02-11T04:41:15.657Z,69.33
2023-02-11T04:42:18.038Z,70.23
2023-02-11T04:43:20.444Z,69.03
2023-02-11T04:44:22.799Z,67.83
2023-02-11T04:45:25.137Z,68.42
2023-02-11T04:46:27.568Z,70.35
2023-02-11T04:47:29.951Z,69.62
2023-02-11T04:48:32.276Z,69.60
2023-02-11T04:49:34.716Z,69.47
2023-02-11T04:50:37.078Z,69.62
2023-02-11T04:51:39.491Z,71.55
2023-02-11T04:52:41.868Z,71.17
2023-02-11T04:53:44.239Z,71.05
2023-02-11T04:54:46.566Z,72.03
2023-02-11T04:55:50.798Z,72.62
2023-02-11T04:56:53.500Z,72.90
2023-02-11T04:57:55.834Z,71.40
2023-02-11T04:58:58.319Z,74.98
2023-02-11T05:00:00.697Z,76.95
2023-02-11T05:01:07.934Z,79.07
2023-02-11T05:02:10.356Z,78.15
2023-02-11T05:03:13.378Z,83.10
2023-02-11T05:04:16.351Z,83.50
2023-02-11T05:05:18.767Z,84.32
2023-02-11T05:06:21.176Z,81.75
2023-02-11T05:07:23.692Z,82.00
2023-02-11T05:08:26.067Z,82.42
2023-02-11T05:09:28.533Z,80.05
2023-02-11T05:10:30.854Z,79.05
2023-02-11T05:11:33.380Z,78.58
2023-02-11T05:12:35.731Z,78.78
2023-02-11T05:13:38.108Z,76.75
2023-02-11T05:14:40.632Z,75.62
2023-02-11T05:15:43.014Z,74.10
2023-02-11T05:16:45.443Z,73.75
2023-02-11T05:17:47.866Z,73.40
2023-02-11T05:18:52.456Z,74.28
2023-02-11T05:19:55.038Z,76.78
2023-02-11T05:20:57.705Z,76.82
2023-02-11T05:22:03.181Z,81.63
2023-02-11T05:23:06.015Z,82.27
2023-02-11T05:24:08.641Z,85.82
2023-02-11T05:25:11.122Z,89.27
2023-02-11T05:26:13.827Z,86.77
2023-02-11T05:27:16.305Z,89.60
2023-02-11T05:28:18.774Z,88.57
2023-02-11T05:29:21.142Z,90.77
2023-02-11T05:30:23.479Z,92.08
2023-02-11T05:31:25.993Z,91.90
2023-02-11T05:32:28.374Z,93.52
2023-02-11T05:33:31.017Z,92.97
2023-02-11T05:34:33.375Z,96.70
2023-02-11T05:35:35.754Z,95.15
2023-02-11T05:36:38.130Z,93.93
2023-02-11T05:37:40.524Z,94.52
2023-02-11T05:38:43.485Z,93.02
2023-02-11T05:39:45.900Z,92.15
2023-02-11T05:40:48.214Z,91.37
2023-02-11T05:41:50.646Z,93.15
2023-02-11T05:42:53.019Z,91.77
2023-02-11T05:43:55.427Z,92.22
2023-02-11T05:44:58.020Z,92.03
2023-02-11T05:46:00.452Z,93.10
2023-02-11T05:47:02.816Z,93.43
2023-02-11T05:48:05.423Z,90.58
2023-02-11T05:49:07.799Z,92.37
2023-02-11T05:50:10.223Z,92.47
2023-02-11T05:51:12.557Z,91.53
2023-02-11T05:52:14.959Z,88.37
2023-02-11T05:53:17.333Z,89.00
2023-02-11T05:54:19.974Z,89.63
2023-02-11T05:55:22.376Z,86.70
2023-02-11T05:56:24.754Z,85.10
2023-02-11T05:57:27.146Z,85.33
2023-02-11T05:58:29.569Z,85.30
2023-02-11T05:59:31.957Z,82.82
2023-02-11T06:00:35.051Z,81.47
2023-02-11T06:01:37.438Z,82.97
2023-02-11T06:02:40.327Z,83.78
2023-02-11T06:03:42.842Z,84.48
2023-02-11T06:04:45.438Z,84.25
2023-02-11T06:05:47.992Z,83.63
2023-02-11T06:06:50.453Z,81.63
2023-02-11T06:07:53.318Z,81.58
2023-02-11T06:08:56.481Z,81.38
2023-02-11T06:09:59.572Z,81.25
2023-02-11T06:11:01.944Z,79.37
2023-02-11T06:12:04.517Z,79.75
2023-02-11T06:13:06.901Z,79.17
2023-02-11T06:14:10.009Z,79.80
2023-02-11T06:15:12.409Z,78.78
2023-02-11T06:16:14.819Z,77.97
2023-02-11T06:17:17.234Z,76.93
2023-02-11T06:18:19.616Z,74.73
2023-02-11T06:19:22.017Z,73.35
2023-02-11T06:20:24.439Z,72.68
2023-02-11T06:21:42.410Z,72.28
2023-02-11T06:22:46.399Z,70.90
2023-02-11T06:23:49.274Z,72.15
2023-02-11T06:25:00.897Z,72.48
2023-02-11T06:26:08.961Z,71.58
2023-02-11T06:27:11.384Z,71.58
2023-02-11T06:28:13.818Z,71.45
2023-02-11T06:29:16.541Z,66.47
2023-02-11T06:30:19.025Z,67.40
2023-02-11T06:31:21.812Z,67.45
2023-02-11T06:32:42.740Z,67.40
2023-02-11T06:33:46.141Z,68.02
2023-02-11T06:34:48.470Z,68.27
2023-02-11T06:35:51.154Z,68.35
2023-02-11T06:36:53.719Z,69.33
2023-02-11T06:37:56.119Z,66.55
2023-02-11T06:38:58.437Z,69.13
2023-02-11T06:40:01.010Z,69.82
2023-02-11T06:41:03.417Z,69.85
2023-02-11T06:42:07.911Z,72.07
2023-02-11T06:43:10.379Z,71.78
2023-02-11T06:44:12.765Z,71.23
2023-02-11T06:45:15.113Z,70.57
2023-02-11T06:46:17.577Z,68.97
2023-02-11T06:47:19.991Z,68.83
2023-02-11T06:48:24.029Z,68.87
2023-02-11T06:49:26.385Z,69.72
2023-02-11T06:50:28.719Z,71.48
2023-02-11T06:51:31.169Z,69.52
2023-02-11T06:52:34.194Z,73.88
2023-02-11T06:53:38.681Z,76.67
2023-02-11T06:54:41.029Z,78.00
2023-02-11T06:55:43.471Z,79.83
2023-02-11T06:56:45.821Z,79.92
2023-02-11T06:57:48.156Z,81.35
2023-02-11T06:58:57.130Z,77.23
2023-02-11T06:59:59.527Z,74.30
2023-02-11T07:01:08.972Z,72.35
2023-02-11T07:02:11.431Z,73.85
2023-02-11T07:03:13.867Z,76.53
2023-02-11T07:04:16.313Z,75.03
2023-02-11T07:05:18.810Z,73.12
2023-02-11T07:06:23.148Z,70.47
2023-02-11T07:07:25.543Z,68.83
2023-02-11T07:08:27.915Z,68.52
2023-02-11T07:09:30.454Z,70.20
2023-02-11T07:10:34.197Z,69.72
2023-02-11T07:11:36.608Z,71.03
2023-02-11T07:12:38.983Z,71.53
2023-02-11T07:13:41.501Z,71.50
2023-02-11T07:14:43.894Z,70.22
2023-02-11T07:15:46.311Z,69.45
2023-02-11T07:16:48.699Z,67.63
2023-02-11T07:17:51.082Z,67.02
2023-02-11T07:18:53.901Z,67.78
2023-02-11T07:19:56.302Z,65.13
2023-02-11T07:20:58.809Z,65.12
2023-02-11T07:22:01.139Z,61.92
2023-02-11T07:23:03.466Z,62.52
2023-02-11T07:24:11.111Z,60.55
2023-02-11T07:25:13.933Z,62.50
2023-02-11T07:26:19.853Z,62.00
2023-02-11T07:27:22.259Z,62.78
2023-02-11T07:28:24.815Z,62.93
2023-02-11T07:29:27.330Z,61.55
2023-02-11T07:30:29.679Z,62.32
2023-02-11T07:31:32.523Z,63.38
2023-02-11T07:32:34.978Z,63.78
2023-02-11T07:33:37.990Z,66.23
2023-02-11T07:34:40.490Z,77.55
2023-02-11T07:35:42.844Z,91.03
2023-02-11T07:36:45.258Z,95.50
2023-02-11T07:37:47.598Z,92.43
2023-02-11T07:38:50.240Z,85.75
2023-02-11T07:39:52.643Z,76.75
2023-02-11T07:40:54.966Z,72.68
2023-02-11T07:41:57.391Z,71.72
2023-02-11T07:43:01.215Z,67.85
2023-02-11T07:44:03.712Z,65.87
2023-02-11T07:45:06.489Z,65.02
2023-02-11T07:46:11.601Z,62.67
2023-02-11T07:47:13.990Z,63.60
2023-02-11T07:48:16.331Z,64.53
2023-02-11T07:49:18.864Z,61.62
2023-02-11T07:50:21.266Z,61.90
2023-02-11T07:51:28.814Z,61.37
2023-02-11T07:52:31.446Z,61.97
2023-02-11T07:53:33.782Z,63.47
2023-02-11T07:54:36.213Z,62.48
2023-02-11T07:55:38.550Z,63.05
2023-02-11T07:56:40.937Z,62.33
2023-02-11T07:57:43.306Z,61.10
2023-02-11T07:58:48.342Z,60.05
2023-02-11T07:59:50.805Z,61.37
2023-02-11T08:00:53.248Z,61.85
2023-02-11T08:01:55.664Z,61.85
2023-02-11T08:02:58.358Z,61.03
2023-02-11T08:04:02.642Z,63.15
2023-02-11T08:05:05.221Z,61.78
2023-02-11T08:06:13.223Z,62.65
2023-02-11T08:07:19.300Z,61.58
2023-02-11T08:08:21.672Z,60.60
2023-02-11T08:09:24.032Z,62.45
2023-02-11T08:10:26.349Z,62.88
2023-02-11T08:11:29.006Z,62.12
2023-02-11T08:12:31.356Z,61.45
2023-02-11T08:13:34.067Z,61.43
2023-02-11T08:14:36.553Z,61.08
2023-02-11T08:15:38.884Z,63.45
2023-02-11T08:16:41.902Z,65.87
2023-02-11T08:17:44.318Z,65.98
2023-02-11T08:18:46.721Z,63.98
2023-02-11T08:19:49.100Z,61.85
2023-02-11T08:20:51.808Z,61.50
2023-02-11T08:21:57.436Z,60.82
2023-02-11T08:22:59.834Z,60.78
2023-02-11T08:24:03.537Z,60.85
2023-02-11T08:25:06.358Z,59.73
2023-02-11T08:26:15.977Z,59.78
2023-02-11T08:27:18.358Z,59.32
2023-02-11T08:28:20.773Z,60.07
2023-02-11T08:29:23.195Z,59.53
2023-02-11T08:30:27.210Z,59.08
2023-02-11T08:31:38.583Z,59.83
2023-02-11T08:32:41.057Z,58.92
2023-02-11T08:33:43.637Z,59.57
2023-02-11T08:34:46.175Z,59.38
2023-02-11T08:35:48.501Z,60.32
2023-02-11T08:36:50.883Z,60.02
2023-02-11T08:37:53.632Z,59.78
2023-02-11T08:39:08.513Z,60.35
2023-02-11T08:40:14.709Z,59.05
2023-02-11T08:41:18.139Z,59.13
2023-02-11T08:42:20.528Z,60.77
2023-02-11T08:43:23.716Z,60.40
2023-02-11T08:44:26.258Z,59.80
2023-02-11T08:45:28.686Z,59.35
2023-02-11T08:46:31.164Z,58.38
2023-02-11T08:47:33.565Z,60.90
2023-02-11T08:48:36.034Z,62.38
2023-02-11T08:49:38.594Z,61.93
2023-02-11T08:50:40.958Z,59.68
2023-02-11T08:51:44.027Z,61.40
2023-02-11T08:52:46.388Z,62.63
2023-02-11T08:53:48.966Z,62.10
2023-02-11T08:54:51.323Z,61.13
2023-02-11T08:55:55.023Z,60.30
2023-02-11T08:56:57.463Z,59.28
2023-02-11T08:57:59.855Z,60.93
2023-02-11T08:59:02.367Z,62.03
2023-02-11T09:00:05.697Z,59.65
2023-02-11T09:01:17.756Z,60.80
2023-02-11T09:02:20.134Z,60.40
2023-02-11T09:03:22.532Z,61.43
2023-02-11T09:04:25.084Z,61.45
2023-02-11T09:05:27.756Z,62.00
2023-02-11T09:06:30.293Z,61.83
2023-02-11T09:07:32.622Z,61.53
2023-02-11T09:08:40.067Z,61.18
2023-02-11T09:09:42.446Z,61.00
2023-02-11T09:10:44.927Z,61.90
2023-02-11T09:11:48.259Z,60.30
2023-02-11T09:12:50.773Z,60.35
2023-02-11T09:13:54.413Z,60.83
2023-02-11T09:14:57.058Z,60.38
2023-02-11T09:16:00.329Z,61.35
2023-02-11T09:17:02.861Z,60.50
2023-02-11T09:18:05.637Z,59.78
2023-02-11T09:19:09.727Z,60.47
2023-02-11T09:20:12.229Z,60.98
2023-02-11T09:21:16.672Z,59.00
2023-02-11T09:22:19.032Z,60.22
2023-02-11T09:23:21.390Z,59.40
2023-02-11T09:24:23.756Z,60.13
2023-02-11T09:25:26.857Z,59.98
2023-02-11T09:26:33.796Z,59.45
2023-02-11T09:27:36.102Z,59.25
2023-02-11T09:28:38.466Z,58.67
2023-02-11T09:29:40.914Z,59.10
2023-02-11T09:30:43.400Z,59.40
2023-02-11T09:31:46.007Z,57.82
2023-02-11T09:32:48.568Z,59.42
2023-02-11T09:33:53.587Z,59.18
2023-02-11T09:34:55.926Z,58.48
2023-02-11T09:36:02.073Z,59.08
2023-02-11T09:37:04.574Z,60.08
2023-02-11T09:38:07.229Z,59.52
2023-02-11T09:39:13.693Z,58.07
2023-02-11T09:40:17.234Z,60.27
2023-02-11T09:41:25.396Z,60.75
2023-02-11T09:43:03.791Z,60.85
2023-02-11T09:44:09.216Z,60.25
2023-02-11T09:45:24.607Z,61.67
2023-02-11T09:46:31.639Z,60.12
2023-02-11T09:47:45.955Z,60.65
2023-02-11T09:48:49.671Z,59.82
2023-02-11T09:50:00.404Z,59.37
2023-02-11T09:51:04.476Z,60.33
2023-02-11T09:52:25.609Z,61.30
2023-02-11T09:53:31.569Z,59.47
2023-02-11T09:54:58.029Z,61.30
2023-02-11T09:56:02.646Z,61.77
2023-02-11T09:57:06.331Z,63.20
2023-02-11T09:58:25.337Z,63.28
2023-02-11T09:59:27.773Z,62.78
2023-02-11T10:00:51.808Z,62.45
2023-02-11T10:02:18.356Z,62.88
2023-02-11T10:03:51.005Z,66.83
2023-02-11T10:04:55.977Z,65.10
2023-02-11T10:06:10.818Z,64.52
2023-02-11T10:07:37.793Z,60.52
2023-02-11T10:08:59.651Z,60.08
2023-02-11T10:10:10.957Z,60.10
2023-02-11T10:11:50.390Z,60.15
2023-02-11T10:13:19.005Z,58.90
2023-02-11T10:14:45.660Z,57.77
2023-02-11T10:16:15.600Z,58.05
2023-02-11T10:17:39.066Z,57.63
2023-02-11T10:19:14.105Z,54.58
2023-02-11T10:20:32.549Z,55.37
2023-02-11T10:21:47.847Z,54.78
2023-02-11T10:23:21.370Z,55.65
2023-02-11T10:24:24.256Z,57.90
2023-02-11T10:25:30.297Z,57.10
2023-02-11T10:26:34.101Z,54.92
2023-02-11T10:27:36.496Z,53.70
2023-02-11T10:28:40.629Z,52.78
2023-02-11T10:30:07.164Z,53.28
2023-02-11T10:31:26.338Z,51.82
2023-02-11T10:32:40.284Z,52.68
2023-02-11T10:33:47.344Z,51.60
2023-02-11T10:34:50.743Z,52.05
2023-02-11T10:35:53.156Z,51.43
2023-02-11T10:36:57.998Z,50.48
2023-02-11T10:38:00.906Z,48.35
2023-02-11T10:39:19.234Z,48.60
2023-02-11T10:40:25.235Z,46.97
2023-02-11T10:41:32.897Z,47.78
2023-02-11T10:42:36.114Z,47.05
2023-02-11T10:43:38.783Z,47.72
2023-02-11T10:44:53.688Z,47.55
2023-02-11T10:45:57.041Z,47.00
2023-02-11T10:47:03.508Z,47.50
2023-02-11T10:48:07.325Z,46.65
2023-02-11T10:49:09.664Z,47.10
2023-02-11T10:50:26.117Z,47.35
2023-02-11T10:51:31.599Z,46.92
2023-02-11T10:52:33.964Z,45.98
2023-02-11T10:53:36.384Z,45.32
2023-02-11T10:54:38.711Z,45.62
2023-02-11T10:55:58.551Z,47.03
2023-02-11T10:57:01.001Z,48.25
2023-02-11T10:58:04.838Z,49.18
2023-02-11T10:59:28.039Z,49.88
2023-02-11T11:00:43.170Z,48.08
2023-02-11T11:01:50.160Z,48.88
2023-02-11T11:02:56.392Z,49.03
2023-02-11T11:04:00.048Z,48.67
2023-02-11T11:05:22.677Z,49.15
2023-02-11T11:06:32.747Z,48.75
2023-02-11T11:07:35.325Z,50.03
2023-02-11T11:08:49.009Z,48.02
2023-02-11T11:10:33.124Z,47.82
2023-02-11T11:11:52.372Z,48.53
2023-02-11T11:12:54.754Z,50.40
2023-02-11T11:13:59.948Z,49.65
2023-02-11T11:15:16.654Z,45.05
2023-02-11T11:16:24.800Z,46.73
2023-02-11T11:17:29.418Z,46.78
2023-02-11T11:18:31.899Z,46.55
2023-02-11T11:19:34.535Z,46.45
2023-02-11T11:20:38.043Z,45.87
2023-02-11T11:21:56.829Z,45.88
2023-02-11T11:23:15.756Z,44.68
2023-02-11T11:24:34.652Z,46.80
2023-02-11T11:25:40.081Z,45.70
2023-02-11T11:26:45.554Z,46.28
2023-02-11T11:27:53.308Z,45.20
2023-02-11T11:29:01.953Z,46.02
2023-02-11T11:30:04.662Z,46.47
2023-02-11T11:31:15.139Z,46.47
2023-02-11T11:32:26.129Z,46.83
2023-02-11T11:33:31.363Z,45.95
2023-02-11T11:34:37.297Z,44.77
2023-02-11T11:35:40.989Z,45.92
2023-02-11T11:36:44.230Z,47.12
2023-02-11T11:37:54.258Z,45.37
2023-02-11T11:38:59.073Z,46.52
2023-02-11T11:40:43.198Z,46.12
2023-02-11T11:41:54.777Z,45.33
2023-02-11T11:43:14.927Z,46.28
2023-02-11T11:44:26.713Z,44.48
2023-02-11T11:45:29.035Z,45.37
2023-02-11T11:46:33.405Z,44.27
2023-02-11T11:47:48.800Z,43.87
2023-02-11T11:48:54.685Z,45.72
2023-02-11T11:50:15.823Z,44.48
2023-02-11T11:51:18.280Z,43.52
2023-02-11T11:52:46.228Z,44.02
2023-02-11T11:53:57.580Z,44.58
2023-02-11T11:55:07.869Z,45.18
2023-02-11T11:56:17.338Z,45.65
2023-02-11T11:57:24.610Z,45.60
2023-02-11T11:58:29.688Z,45.23
2023-02-11T11:59:32.157Z,45.12
2023-02-11T12:01:06.781Z,44.65
2023-02-11T12:02:36.349Z,46.25
2023-02-11T12:03:56.924Z,45.28
2023-02-11T12:05:13.441Z,45.52
2023-02-11T12:06:30.549Z,46.28
2023-02-11T12:08:04.620Z,45.37
2023-02-11T12:09:17.446Z,45.12
2023-02-11T12:10:31.513Z,44.13
2023-02-11T12:11:45.488Z,45.73
2023-02-11T12:13:00.027Z,43.83
2023-02-11T12:14:28.462Z,45.27
2023-02-11T12:15:48.821Z,45.90
2023-02-11T12:17:05.277Z,45.72
2023-02-11T12:18:26.086Z,44.07
2023-02-11T12:20:14.215Z,42.88
2023-02-11T12:21:37.838Z,43.97
2023-02-11T12:22:54.918Z,42.92
2023-02-11T12:24:08.496Z,43.43
2023-02-11T12:25:27.521Z,42.13
2023-02-11T12:26:38.712Z,42.10
2023-02-11T12:28:14.906Z,41.00
2023-02-11T12:29:44.407Z,39.93
2023-02-11T12:31:06.923Z,41.02
2023-02-11T12:32:16.171Z,40.25
2023-02-11T12:33:21.402Z,37.73
2023-02-11T12:34:42.222Z,40.35
2023-02-11T12:35:58.544Z,41.28
2023-02-11T12:37:10.648Z,39.85
2023-02-11T12:38:29.056Z,39.32
2023-02-11T12:39:47.409Z,40.63
2023-02-11T12:41:02.465Z,39.58
2023-02-11T12:43:07.524Z,38.22
2023-02-11T12:44:21.675Z,37.68
2023-02-11T12:45:33.449Z,37.30
2023-02-11T12:46:49.306Z,37.13
2023-02-11T12:48:29.756Z,37.12
2023-02-11T12:50:29.353Z,36.82
2023-02-11T12:52:01.033Z,36.23
2023-02-11T12:53:12.278Z,35.50
2023-02-11T12:54:23.231Z,36.05
2023-02-11T12:55:27.369Z,36.30
2023-02-11T12:56:38.953Z,35.68
2023-02-11T12:57:42.376Z,35.07
2023-02-11T12:58:45.886Z,36.17
2023-02-11T12:59:56.686Z,34.58
2023-02-11T13:01:06.275Z,33.85
2023-02-11T13:02:22.001Z,33.27
2023-02-11T13:03:53.099Z,32.10
2023-02-11T13:05:00.400Z,33.12
2023-02-11T13:06:07.996Z,32.45
2023-02-11T13:07:16.504Z,31.67
2023-02-11T13:08:34.604Z,33.20
2023-02-11T13:09:43.772Z,34.15
2023-02-11T13:11:03.787Z,31.65
2023-02-11T13:12:25.138Z,31.78
2023-02-11T13:13:30.688Z,31.12
2023-02-11T13:14:40.405Z,31.22
2023-02-11T13:16:09.949Z,31.80
2023-02-11T13:17:23.373Z,30.80
2023-02-11T13:18:35.516Z,31.80
2023-02-11T13:19:53.044Z,31.73
2023-02-11T13:21:10.699Z,30.22
2023-02-11T13:22:35.522Z,31.53
2023-02-11T13:24:05.499Z,30.50
2023-02-11T13:25:33.534Z,30.58
2023-02-11T13:27:10.172Z,31.62
2023-02-11T13:28:30.076Z,31.27
2023-02-11T13:30:13.352Z,30.32
2023-02-11T13:31:16.937Z,30.48
2023-02-11T13:32:19.382Z,30.62
2023-02-11T13:33:32.972Z,31.43
2023-02-11T13:34:41.181Z,30.65
2023-02-11T13:35:48.732Z,30.25
2023-02-11T13:36:55.511Z,29.52
2023-02-11T13:38:00.510Z,28.70
2023-02-11T13:39:06.211Z,28.57
2023-02-11T13:40:23.281Z,28.90
2023-02-11T13:41:41.063Z,30.03
2023-02-11T13:42:51.819Z,30.50
2023-02-11T13:44:01.524Z,31.60
2023-02-11T13:45:37.678Z,32.12
2023-02-11T13:47:01.490Z,30.97
2023-02-11T13:48:06.693Z,29.97
2023-02-11T13:49:19.470Z,29.08
2023-02-11T13:50:25.944Z,30.67
2023-02-11T13:51:41.476Z,28.47
2023-02-11T13:52:44.761Z,28.83
2023-02-11T13:53:52.570Z,30.10
2023-02-11T13:54:58.317Z,28.87
2023-02-11T13:56:12.800Z,28.18
2023-02-11T13:57:21.091Z,28.23
2023-02-11T13:58:28.933Z,29.03
2023-02-11T13:59:33.052Z,29.87
2023-02-11T14:00:35.491Z,28.60
2023-02-11T14:02:18.474Z,27.92
2023-02-11T14:03:56.372Z,28.18
2023-02-11T14:05:23.253Z,29.05
2023-02-11T14:06:47.065Z,28.88
2023-02-11T14:08:26.179Z,27.60
2023-02-11T14:09:36.346Z,29.03
2023-02-11T14:10:41.161Z,29.60
2023-02-11T14:11:49.377Z,29.15
2023-02-11T14:13:20.018Z,29.45
2023-02-11T14:14:23.941Z,28.77
2023-02-11T14:15:27.296Z,28.90
2023-02-11T14:16:38.076Z,29.32
2023-02-11T14:17:41.095Z,28.63
2023-02-11T14:18:49.204Z,28.73
2023-02-11T14:19:51.953Z,28.33
2023-02-11T14:21:13.356Z,28.38
2023-02-11T14:22:20.471Z,28.00
2023-02-11T14:23:27.400Z,27.33
2023-02-11T14:24:31.078Z,28.10
2023-02-11T14:25:33.687Z,27.13
2023-02-11T14:26:55.396Z,27.20
2023-02-11T14:28:04.901Z,25.93
2023-02-11T14:29:24.368Z,26.63
2023-02-11T14:30:48.052Z,26.57
2023-02-11T14:32:11.391Z,26.65
2023-02-11T14:33:17.347Z,25.62
2023-02-11T14:34:47.705Z,25.85
2023-02-11T14:36:14.488Z,25.10
2023-02-11T14:37:27.059Z,26.70